sensor_id;sensor_type;location;lat;lon;timestamp;P1;durP1;ratioP1;P2;durP2;ratioP2
47153;SDS011;32907;41.412;2.164;2022-12-07T00:01:43;20.48;;;18.38;;
47153;SDS011;32907;41.412;2.164;2022-12-07T00:04:13;21.42;;;19.13;;
47153;SDS011;32907;41.412;2.164;2022-12-07T00:06:44;21.60;;;18.90;;
47153;SDS011;32907;41.412;2.164;2022-12-07T00:09:14;20.67;;;18.02;;
47153;SDS011;32907;41.412;2.164;2022-12-07T00:11:43;19.38;;;17.23;;
47153;SDS011;32907;41.412;2.164;2022-12-07T00:14:12;20.42;;;18.20;;
47153;SDS011;32907;41.412;2.164;2022-12-07T00:16:41;20.75;;;18.50;;
47153;SDS011;32907;41.412;2.164;2022-12-07T00:19:10;19.15;;;16.88;;
47153;SDS011;32907;41.412;2.164;2022-12-07T00:21:39;19.35;;;16.83;;
47153;SDS011;32907;41.412;2.164;2022-12-07T00:24:09;19.30;;;17.20;;
47153;SDS011;32907;41.412;2.164;2022-12-07T00:26:37;18.33;;;16.15;;
47153;SDS011;32907;41.412;2.164;2022-12-07T00:29:08;19.90;;;15.30;;
47153;SDS011;32907;41.412;2.164;2022-12-07T00:31:40;17.02;;;14.80;;
47153;SDS011;32907;41.412;2.164;2022-12-07T00:34:11;17.85;;;15.95;;
47153;SDS011;32907;41.412;2.164;2022-12-07T00:36:41;18.08;;;15.65;;
47153;SDS011;32907;41.412;2.164;2022-12-07T00:39:10;17.00;;;14.95;;
47153;SDS011;32907;41.412;2.164;2022-12-07T00:41:38;18.25;;;15.85;;
47153;SDS011;32907;41.412;2.164;2022-12-07T00:44:07;17.35;;;15.07;;
47153;SDS011;32907;41.412;2.164;2022-12-07T00:46:35;18.52;;;16.35;;
47153;SDS011;32907;41.412;2.164;2022-12-07T00:49:03;18.13;;;16.20;;
47153;SDS011;32907;41.412;2.164;2022-12-07T00:51:31;17.88;;;15.32;;
47153;SDS011;32907;41.412;2.164;2022-12-07T00:53:58;18.67;;;15.88;;
47153;SDS011;32907;41.412;2.164;2022-12-07T00:56:27;18.30;;;15.63;;
47153;SDS011;32907;41.412;2.164;2022-12-07T00:58:57;19.10;;;15.75;;
47153;SDS011;32907;41.412;2.164;2022-12-07T01:01:27;20.02;;;16.20;;
47153;SDS011;32907;41.412;2.164;2022-12-07T01:03:57;19.25;;;16.23;;
47153;SDS011;32907;41.412;2.164;2022-12-07T01:06:25;18.00;;;14.95;;
47153;SDS011;32907;41.412;2.164;2022-12-07T01:08:53;19.58;;;16.52;;
47153;SDS011;32907;41.412;2.164;2022-12-07T01:11:22;18.67;;;16.23;;
47153;SDS011;32907;41.412;2.164;2022-12-07T01:13:52;16.95;;;15.15;;
47153;SDS011;32907;41.412;2.164;2022-12-07T01:16:23;17.63;;;15.82;;
47153;SDS011;32907;41.412;2.164;2022-12-07T01:18:54;18.17;;;15.85;;
47153;SDS011;32907;41.412;2.164;2022-12-07T01:21:26;19.33;;;16.60;;
47153;SDS011;32907;41.412;2.164;2022-12-07T01:23:57;19.10;;;16.38;;
47153;SDS011;32907;41.412;2.164;2022-12-07T01:26:25;19.88;;;17.35;;
47153;SDS011;32907;41.412;2.164;2022-12-07T01:28:53;21.38;;;17.42;;
47153;SDS011;32907;41.412;2.164;2022-12-07T01:31:23;21.15;;;17.77;;
47153;SDS011;32907;41.412;2.164;2022-12-07T01:33:54;17.85;;;15.95;;
47153;SDS011;32907;41.412;2.164;2022-12-07T01:36:28;19.55;;;16.20;;
47153;SDS011;32907;41.412;2.164;2022-12-07T01:39:00;17.90;;;16.00;;
47153;SDS011;32907;41.412;2.164;2022-12-07T01:41:31;17.60;;;15.70;;
47153;SDS011;32907;41.412;2.164;2022-12-07T01:46:38;21.10;;;17.52;;
47153;SDS011;32907;41.412;2.164;2022-12-07T01:49:08;17.27;;;15.30;;
47153;SDS011;32907;41.412;2.164;2022-12-07T01:51:39;18.45;;;16.52;;
47153;SDS011;32907;41.412;2.164;2022-12-07T01:54:09;18.90;;;15.95;;
47153;SDS011;32907;41.412;2.164;2022-12-07T01:56:40;18.48;;;15.98;;
47153;SDS011;32907;41.412;2.164;2022-12-07T01:59:13;19.48;;;16.75;;
47153;SDS011;32907;41.412;2.164;2022-12-07T02:01:41;20.05;;;17.48;;
47153;SDS011;32907;41.412;2.164;2022-12-07T02:04:09;18.23;;;16.33;;
47153;SDS011;32907;41.412;2.164;2022-12-07T02:06:38;21.60;;;18.13;;
47153;SDS011;32907;41.412;2.164;2022-12-07T02:09:07;19.15;;;16.90;;
47153;SDS011;32907;41.412;2.164;2022-12-07T02:11:35;21.25;;;17.40;;
47153;SDS011;32907;41.412;2.164;2022-12-07T02:14:03;21.02;;;17.42;;
47153;SDS011;32907;41.412;2.164;2022-12-07T02:16:54;17.85;;;15.55;;
47153;SDS011;32907;41.412;2.164;2022-12-07T02:31:19;20.67;;;16.88;;
47153;SDS011;32907;41.412;2.164;2022-12-07T02:33:52;17.85;;;15.80;;
47153;SDS011;32907;41.412;2.164;2022-12-07T02:36:28;17.45;;;15.55;;
47153;SDS011;32907;41.412;2.164;2022-12-07T02:41:36;18.77;;;16.77;;
47153;SDS011;32907;41.412;2.164;2022-12-07T02:44:11;19.17;;;16.58;;
47153;SDS011;32907;41.412;2.164;2022-12-07T02:46:44;19.67;;;16.73;;
47153;SDS011;32907;41.412;2.164;2022-12-07T02:49:18;19.00;;;16.92;;
47153;SDS011;32907;41.412;2.164;2022-12-07T02:51:49;19.73;;;17.63;;
47153;SDS011;32907;41.412;2.164;2022-12-07T02:54:18;18.85;;;16.50;;
47153;SDS011;32907;41.412;2.164;2022-12-07T02:56:48;18.88;;;16.02;;
47153;SDS011;32907;41.412;2.164;2022-12-07T03:05:37;18.70;;;16.65;;
47153;SDS011;32907;41.412;2.164;2022-12-07T03:16:18;19.60;;;16.95;;
47153;SDS011;32907;41.412;2.164;2022-12-07T03:18:55;20.05;;;17.00;;
47153;SDS011;32907;41.412;2.164;2022-12-07T03:21:32;19.30;;;17.30;;
47153;SDS011;32907;41.412;2.164;2022-12-07T03:24:06;18.25;;;16.40;;
47153;SDS011;32907;41.412;2.164;2022-12-07T03:26:51;19.08;;;17.08;;
47153;SDS011;32907;41.412;2.164;2022-12-07T03:29:25;19.90;;;17.77;;
47153;SDS011;32907;41.412;2.164;2022-12-07T03:32:32;18.23;;;16.15;;
47153;SDS011;32907;41.412;2.164;2022-12-07T03:35:22;18.33;;;16.42;;
47153;SDS011;32907;41.412;2.164;2022-12-07T03:37:59;18.83;;;16.88;;
47153;SDS011;32907;41.412;2.164;2022-12-07T03:40:47;18.88;;;16.88;;
47153;SDS011;32907;41.412;2.164;2022-12-07T03:43:29;18.02;;;16.23;;
47153;SDS011;32907;41.412;2.164;2022-12-07T03:48:57;19.92;;;17.40;;
47153;SDS011;32907;41.412;2.164;2022-12-07T03:51:45;20.85;;;17.75;;
47153;SDS011;32907;41.412;2.164;2022-12-07T03:54:32;18.60;;;16.80;;
47153;SDS011;32907;41.412;2.164;2022-12-07T03:57:05;19.20;;;17.08;;
47153;SDS011;32907;41.412;2.164;2022-12-07T03:59:35;19.23;;;17.23;;
47153;SDS011;32907;41.412;2.164;2022-12-07T04:02:05;17.83;;;15.93;;
47153;SDS011;32907;41.412;2.164;2022-12-07T04:04:34;19.25;;;17.27;;
47153;SDS011;32907;41.412;2.164;2022-12-07T04:07:03;19.27;;;17.02;;
47153;SDS011;32907;41.412;2.164;2022-12-07T04:09:31;19.63;;;16.63;;
47153;SDS011;32907;41.412;2.164;2022-12-07T04:11:59;18.15;;;16.05;;
47153;SDS011;32907;41.412;2.164;2022-12-07T04:14:27;19.08;;;17.08;;
47153;SDS011;32907;41.412;2.164;2022-12-07T04:16:56;17.75;;;15.65;;
47153;SDS011;32907;41.412;2.164;2022-12-07T04:19:26;20.65;;;17.95;;
47153;SDS011;32907;41.412;2.164;2022-12-07T04:21:56;21.80;;;19.38;;
47153;SDS011;32907;41.412;2.164;2022-12-07T04:24:25;23.27;;;20.77;;
47153;SDS011;32907;41.412;2.164;2022-12-07T04:26:54;21.63;;;19.35;;
47153;SDS011;32907;41.412;2.164;2022-12-07T04:29:23;20.42;;;18.27;;
47153;SDS011;32907;41.412;2.164;2022-12-07T04:31:52;18.95;;;17.05;;
47153;SDS011;32907;41.412;2.164;2022-12-07T04:34:20;19.42;;;16.70;;
47153;SDS011;32907;41.412;2.164;2022-12-07T04:36:51;19.77;;;17.02;;
47153;SDS011;32907;41.412;2.164;2022-12-07T04:39:24;16.83;;;15.05;;
47153;SDS011;32907;41.412;2.164;2022-12-07T04:41:53;17.17;;;15.38;;
47153;SDS011;32907;41.412;2.164;2022-12-07T04:44:22;17.33;;;14.95;;
47153;SDS011;32907;41.412;2.164;2022-12-07T04:46:52;16.52;;;14.70;;
47153;SDS011;32907;41.412;2.164;2022-12-07T04:49:21;16.33;;;14.63;;
47153;SDS011;32907;41.412;2.164;2022-12-07T04:51:49;16.55;;;14.85;;
47153;SDS011;32907;41.412;2.164;2022-12-07T04:54:17;17.17;;;15.48;;
47153;SDS011;32907;41.412;2.164;2022-12-07T04:56:48;17.63;;;15.73;;
47153;SDS011;32907;41.412;2.164;2022-12-07T04:59:16;17.25;;;15.50;;
47153;SDS011;32907;41.412;2.164;2022-12-07T05:01:44;18.42;;;15.75;;
47153;SDS011;32907;41.412;2.164;2022-12-07T05:04:12;18.17;;;15.45;;
47153;SDS011;32907;41.412;2.164;2022-12-07T05:06:40;16.38;;;14.68;;
47153;SDS011;32907;41.412;2.164;2022-12-07T05:09:08;18.92;;;15.45;;
47153;SDS011;32907;41.412;2.164;2022-12-07T05:11:36;17.25;;;15.10;;
47153;SDS011;32907;41.412;2.164;2022-12-07T05:16:46;18.00;;;15.50;;
47153;SDS011;32907;41.412;2.164;2022-12-07T05:19:15;16.58;;;14.77;;
47153;SDS011;32907;41.412;2.164;2022-12-07T05:21:43;16.65;;;14.88;;
47153;SDS011;32907;41.412;2.164;2022-12-07T05:24:11;18.17;;;15.30;;
47153;SDS011;32907;41.412;2.164;2022-12-07T05:26:42;16.85;;;14.85;;
47153;SDS011;32907;41.412;2.164;2022-12-07T05:29:11;16.33;;;14.63;;
47153;SDS011;32907;41.412;2.164;2022-12-07T05:31:43;16.15;;;14.48;;
47153;SDS011;32907;41.412;2.164;2022-12-07T05:34:11;16.75;;;14.32;;
47153;SDS011;32907;41.412;2.164;2022-12-07T05:36:39;16.35;;;14.23;;
47153;SDS011;32907;41.412;2.164;2022-12-07T05:39:07;15.50;;;13.98;;
47153;SDS011;32907;41.412;2.164;2022-12-07T05:41:36;19.80;;;15.02;;
47153;SDS011;32907;41.412;2.164;2022-12-07T05:44:22;18.40;;;15.38;;
47153;SDS011;32907;41.412;2.164;2022-12-07T05:46:50;16.60;;;14.88;;
47153;SDS011;32907;41.412;2.164;2022-12-07T05:49:19;16.52;;;14.82;;
47153;SDS011;32907;41.412;2.164;2022-12-07T05:51:46;16.33;;;14.68;;
47153;SDS011;32907;41.412;2.164;2022-12-07T05:54:14;16.65;;;14.95;;
47153;SDS011;32907;41.412;2.164;2022-12-07T05:56:42;18.77;;;15.55;;
47153;SDS011;32907;41.412;2.164;2022-12-07T05:59:10;18.23;;;15.50;;
47153;SDS011;32907;41.412;2.164;2022-12-07T06:01:57;18.15;;;16.35;;
47153;SDS011;32907;41.412;2.164;2022-12-07T06:04:28;17.55;;;15.65;;
47153;SDS011;32907;41.412;2.164;2022-12-07T06:06:57;20.58;;;17.40;;
47153;SDS011;32907;41.412;2.164;2022-12-07T06:09:26;19.67;;;16.27;;
47153;SDS011;32907;41.412;2.164;2022-12-07T06:11:55;18.40;;;15.82;;
47153;SDS011;32907;41.412;2.164;2022-12-07T06:14:42;17.50;;;15.70;;
47153;SDS011;32907;41.412;2.164;2022-12-07T06:17:11;19.65;;;16.05;;
47153;SDS011;32907;41.412;2.164;2022-12-07T06:19:39;16.75;;;14.90;;
47153;SDS011;32907;41.412;2.164;2022-12-07T06:22:07;21.45;;;17.40;;
47153;SDS011;32907;41.412;2.164;2022-12-07T06:24:36;22.90;;;17.55;;
47153;SDS011;32907;41.412;2.164;2022-12-07T06:27:04;26.85;;;18.85;;
47153;SDS011;32907;41.412;2.164;2022-12-07T06:29:33;22.42;;;17.77;;
47153;SDS011;32907;41.412;2.164;2022-12-07T06:32:03;22.67;;;17.83;;
47153;SDS011;32907;41.412;2.164;2022-12-07T06:34:32;20.05;;;17.52;;
47153;SDS011;32907;41.412;2.164;2022-12-07T06:37:00;20.48;;;18.15;;
47153;SDS011;32907;41.412;2.164;2022-12-07T06:39:30;20.02;;;17.27;;
47153;SDS011;32907;41.412;2.164;2022-12-07T06:41:59;21.63;;;16.75;;
47153;SDS011;32907;41.412;2.164;2022-12-07T06:44:26;19.95;;;16.42;;
47153;SDS011;32907;41.412;2.164;2022-12-07T06:46:58;18.55;;;15.57;;
47153;SDS011;32907;41.412;2.164;2022-12-07T06:49:46;18.05;;;15.07;;
47153;SDS011;32907;41.412;2.164;2022-12-07T06:52:14;17.20;;;15.15;;
47153;SDS011;32907;41.412;2.164;2022-12-07T06:54:42;18.90;;;15.60;;
47153;SDS011;32907;41.412;2.164;2022-12-07T06:57:10;17.20;;;14.18;;
47153;SDS011;32907;41.412;2.164;2022-12-07T06:59:39;16.80;;;14.48;;
47153;SDS011;32907;41.412;2.164;2022-12-07T07:02:08;15.98;;;13.55;;
47153;SDS011;32907;41.412;2.164;2022-12-07T07:04:36;17.20;;;13.82;;
47153;SDS011;32907;41.412;2.164;2022-12-07T07:07:04;19.65;;;14.70;;
47153;SDS011;32907;41.412;2.164;2022-12-07T07:09:32;17.90;;;14.10;;
47153;SDS011;32907;41.412;2.164;2022-12-07T07:12:00;20.00;;;16.73;;
47153;SDS011;32907;41.412;2.164;2022-12-07T07:14:27;21.27;;;16.33;;
47153;SDS011;32907;41.412;2.164;2022-12-07T07:16:56;20.67;;;16.00;;
47153;SDS011;32907;41.412;2.164;2022-12-07T07:19:24;21.90;;;16.95;;
47153;SDS011;32907;41.412;2.164;2022-12-07T07:21:52;19.30;;;16.40;;
47153;SDS011;32907;41.412;2.164;2022-12-07T07:24:20;22.20;;;17.95;;
47153;SDS011;32907;41.412;2.164;2022-12-07T07:26:48;22.73;;;15.82;;
47153;SDS011;32907;41.412;2.164;2022-12-07T07:29:16;18.10;;;15.88;;
47153;SDS011;32907;41.412;2.164;2022-12-07T07:31:43;18.15;;;14.73;;
47153;SDS011;32907;41.412;2.164;2022-12-07T07:34:11;17.40;;;14.23;;
47153;SDS011;32907;41.412;2.164;2022-12-07T07:36:41;19.50;;;14.93;;
47153;SDS011;32907;41.412;2.164;2022-12-07T07:39:09;19.75;;;15.60;;
47153;SDS011;32907;41.412;2.164;2022-12-07T07:41:40;27.58;;;18.88;;
47153;SDS011;32907;41.412;2.164;2022-12-07T07:44:12;50.35;;;27.67;;
47153;SDS011;32907;41.412;2.164;2022-12-07T07:46:40;95.53;;;47.25;;
47153;SDS011;32907;41.412;2.164;2022-12-07T07:49:09;99.38;;;52.33;;
47153;SDS011;32907;41.412;2.164;2022-12-07T07:51:38;87.07;;;48.53;;
47153;SDS011;32907;41.412;2.164;2022-12-07T07:54:06;72.72;;;39.78;;
47153;SDS011;32907;41.412;2.164;2022-12-07T07:56:34;52.63;;;30.50;;
47153;SDS011;32907;41.412;2.164;2022-12-07T07:59:02;48.45;;;26.58;;
47153;SDS011;32907;41.412;2.164;2022-12-07T08:01:30;40.38;;;22.73;;
47153;SDS011;32907;41.412;2.164;2022-12-07T08:03:57;32.08;;;20.48;;
47153;SDS011;32907;41.412;2.164;2022-12-07T08:06:25;25.48;;;18.25;;
47153;SDS011;32907;41.412;2.164;2022-12-07T08:08:58;26.17;;;17.15;;
47153;SDS011;32907;41.412;2.164;2022-12-07T08:11:26;26.02;;;17.00;;
47153;SDS011;32907;41.412;2.164;2022-12-07T08:13:54;20.35;;;15.65;;
47153;SDS011;32907;41.412;2.164;2022-12-07T08:16:22;21.92;;;16.55;;
47153;SDS011;32907;41.412;2.164;2022-12-07T08:18:50;19.50;;;15.48;;
47153;SDS011;32907;41.412;2.164;2022-12-07T08:21:18;16.17;;;13.65;;
47153;SDS011;32907;41.412;2.164;2022-12-07T08:23:46;16.38;;;13.52;;
47153;SDS011;32907;41.412;2.164;2022-12-07T08:26:15;20.13;;;14.13;;
47153;SDS011;32907;41.412;2.164;2022-12-07T08:28:43;21.42;;;13.77;;
47153;SDS011;32907;41.412;2.164;2022-12-07T08:31:13;19.25;;;13.65;;
47153;SDS011;32907;41.412;2.164;2022-12-07T08:33:47;19.15;;;13.40;;
47153;SDS011;32907;41.412;2.164;2022-12-07T08:36:16;18.45;;;14.18;;
47153;SDS011;32907;41.412;2.164;2022-12-07T08:38:45;16.45;;;13.75;;
47153;SDS011;32907;41.412;2.164;2022-12-07T08:41:33;19.70;;;14.57;;
47153;SDS011;32907;41.412;2.164;2022-12-07T08:44:01;18.42;;;13.70;;
47153;SDS011;32907;41.412;2.164;2022-12-07T08:46:45;14.15;;;11.27;;
47153;SDS011;32907;41.412;2.164;2022-12-07T08:51:47;19.60;;;12.15;;
47153;SDS011;32907;41.412;2.164;2022-12-07T08:54:16;16.02;;;11.88;;
47153;SDS011;32907;41.412;2.164;2022-12-07T08:56:44;18.75;;;11.27;;
47153;SDS011;32907;41.412;2.164;2022-12-07T08:59:19;14.35;;;10.73;;
47153;SDS011;32907;41.412;2.164;2022-12-07T09:01:48;16.30;;;11.70;;
47153;SDS011;32907;41.412;2.164;2022-12-07T09:04:16;17.92;;;10.75;;
47153;SDS011;32907;41.412;2.164;2022-12-07T09:06:44;15.32;;;10.27;;
47153;SDS011;32907;41.412;2.164;2022-12-07T09:09:12;14.30;;;10.30;;
47153;SDS011;32907;41.412;2.164;2022-12-07T09:11:42;14.30;;;9.90;;
47153;SDS011;32907;41.412;2.164;2022-12-07T09:14:12;14.82;;;10.05;;
47153;SDS011;32907;41.412;2.164;2022-12-07T09:16:40;12.40;;;9.63;;
47153;SDS011;32907;41.412;2.164;2022-12-07T09:19:08;11.43;;;9.23;;
47153;SDS011;32907;41.412;2.164;2022-12-07T09:21:35;15.05;;;9.70;;
47153;SDS011;32907;41.412;2.164;2022-12-07T09:24:03;11.93;;;8.85;;
47153;SDS011;32907;41.412;2.164;2022-12-07T09:26:32;14.25;;;9.65;;
47153;SDS011;32907;41.412;2.164;2022-12-07T09:29:02;13.55;;;9.15;;
47153;SDS011;32907;41.412;2.164;2022-12-07T09:31:30;11.73;;;9.07;;
47153;SDS011;32907;41.412;2.164;2022-12-07T09:33:59;12.88;;;8.90;;
47153;SDS011;32907;41.412;2.164;2022-12-07T09:36:28;10.80;;;8.15;;
47153;SDS011;32907;41.412;2.164;2022-12-07T09:38:56;11.18;;;8.95;;
47153;SDS011;32907;41.412;2.164;2022-12-07T09:41:24;12.65;;;8.82;;
47153;SDS011;32907;41.412;2.164;2022-12-07T09:43:55;11.55;;;8.30;;
47153;SDS011;32907;41.412;2.164;2022-12-07T09:46:33;10.70;;;8.23;;
47153;SDS011;32907;41.412;2.164;2022-12-07T09:49:04;9.27;;;7.80;;
47153;SDS011;32907;41.412;2.164;2022-12-07T09:51:32;11.60;;;8.75;;
47153;SDS011;32907;41.412;2.164;2022-12-07T09:54:00;11.52;;;8.48;;
47153;SDS011;32907;41.412;2.164;2022-12-07T09:56:29;10.57;;;8.93;;
47153;SDS011;32907;41.412;2.164;2022-12-07T09:58:58;12.38;;;8.90;;
47153;SDS011;32907;41.412;2.164;2022-12-07T10:01:29;13.15;;;8.60;;
47153;SDS011;32907;41.412;2.164;2022-12-07T10:04:10;13.73;;;10.13;;
47153;SDS011;32907;41.412;2.164;2022-12-07T10:06:41;10.20;;;8.48;;
47153;SDS011;32907;41.412;2.164;2022-12-07T10:09:10;11.10;;;9.18;;
47153;SDS011;32907;41.412;2.164;2022-12-07T10:12:02;10.02;;;8.85;;
47153;SDS011;32907;41.412;2.164;2022-12-07T10:14:37;10.63;;;9.05;;
47153;SDS011;32907;41.412;2.164;2022-12-07T10:17:29;15.52;;;11.23;;
47153;SDS011;32907;41.412;2.164;2022-12-07T10:23:05;16.08;;;13.38;;
47153;SDS011;32907;41.412;2.164;2022-12-07T10:25:40;22.60;;;15.65;;
47153;SDS011;32907;41.412;2.164;2022-12-07T10:30:54;24.00;;;16.63;;
47153;SDS011;32907;41.412;2.164;2022-12-07T10:33:30;18.55;;;15.75;;
47153;SDS011;32907;41.412;2.164;2022-12-07T10:38:51;16.65;;;13.70;;
47153;SDS011;32907;41.412;2.164;2022-12-07T10:41:59;18.30;;;14.00;;
47153;SDS011;32907;41.412;2.164;2022-12-07T10:44:29;17.90;;;13.90;;
47153;SDS011;32907;41.412;2.164;2022-12-07T10:55:42;15.88;;;12.98;;
47153;SDS011;32907;41.412;2.164;2022-12-07T11:30:08;18.55;;;13.02;;
47153;SDS011;32907;41.412;2.164;2022-12-07T11:38:57;19.48;;;13.95;;
47153;SDS011;32907;41.412;2.164;2022-12-07T11:41:31;23.00;;;15.73;;
47153;SDS011;32907;41.412;2.164;2022-12-07T11:46:58;21.70;;;14.63;;
47153;SDS011;32907;41.412;2.164;2022-12-07T11:49:47;20.40;;;14.05;;
47153;SDS011;32907;41.412;2.164;2022-12-07T11:53:09;19.27;;;14.45;;
47153;SDS011;32907;41.412;2.164;2022-12-07T12:06:38;17.15;;;15.10;;
47153;SDS011;32907;41.412;2.164;2022-12-07T12:09:14;23.00;;;17.80;;
47153;SDS011;32907;41.412;2.164;2022-12-07T12:15:29;26.40;;;19.45;;
47153;SDS011;32907;41.412;2.164;2022-12-07T12:20:57;36.28;;;23.33;;
47153;SDS011;32907;41.412;2.164;2022-12-07T12:26:07;28.35;;;21.52;;
47153;SDS011;32907;41.412;2.164;2022-12-07T12:31:29;22.50;;;18.20;;
47153;SDS011;32907;41.412;2.164;2022-12-07T12:34:00;23.77;;;17.80;;
47153;SDS011;32907;41.412;2.164;2022-12-07T12:46:49;25.20;;;22.10;;
47153;SDS011;32907;41.412;2.164;2022-12-07T12:54:25;25.70;;;20.20;;
47153;SDS011;32907;41.412;2.164;2022-12-07T12:57:06;21.38;;;18.13;;
47153;SDS011;32907;41.412;2.164;2022-12-07T13:15:37;21.95;;;16.30;;
47153;SDS011;32907;41.412;2.164;2022-12-07T13:21:00;24.13;;;16.73;;
47153;SDS011;32907;41.412;2.164;2022-12-07T13:23:31;25.73;;;17.75;;
47153;SDS011;32907;41.412;2.164;2022-12-07T13:26:04;27.00;;;17.63;;
47153;SDS011;32907;41.412;2.164;2022-12-07T13:28:48;27.73;;;19.25;;
47153;SDS011;32907;41.412;2.164;2022-12-07T13:33:54;22.80;;;17.85;;
47153;SDS011;32907;41.412;2.164;2022-12-07T13:38:57;23.15;;;18.52;;
47153;SDS011;32907;41.412;2.164;2022-12-07T13:41:28;22.85;;;17.90;;
47153;SDS011;32907;41.412;2.164;2022-12-07T13:44:08;22.02;;;17.30;;
47153;SDS011;32907;41.412;2.164;2022-12-07T13:46:59;26.25;;;18.48;;
47153;SDS011;32907;41.412;2.164;2022-12-07T13:49:51;20.90;;;17.55;;
47153;SDS011;32907;41.412;2.164;2022-12-07T13:54:49;24.00;;;18.17;;
47153;SDS011;32907;41.412;2.164;2022-12-07T13:57:25;19.63;;;15.03;;
47153;SDS011;32907;41.412;2.164;2022-12-07T13:59:55;21.63;;;15.88;;
47153;SDS011;32907;41.412;2.164;2022-12-07T14:05:24;22.00;;;16.98;;
47153;SDS011;32907;41.412;2.164;2022-12-07T14:13:01;21.83;;;16.73;;
47153;SDS011;32907;41.412;2.164;2022-12-07T14:15:31;23.63;;;18.67;;
47153;SDS011;32907;41.412;2.164;2022-12-07T14:18:02;19.45;;;16.38;;
47153;SDS011;32907;41.412;2.164;2022-12-07T14:20:34;20.15;;;16.98;;
47153;SDS011;32907;41.412;2.164;2022-12-07T14:23:21;24.35;;;18.45;;
47153;SDS011;32907;41.412;2.164;2022-12-07T14:25:52;25.30;;;19.58;;
47153;SDS011;32907;41.412;2.164;2022-12-07T14:28:31;26.25;;;20.60;;
47153;SDS011;32907;41.412;2.164;2022-12-07T14:31:01;25.10;;;20.48;;
47153;SDS011;32907;41.412;2.164;2022-12-07T14:33:30;25.30;;;21.02;;
47153;SDS011;32907;41.412;2.164;2022-12-07T14:35:59;29.55;;;23.27;;
47153;SDS011;32907;41.412;2.164;2022-12-07T14:38:27;30.42;;;23.88;;
47153;SDS011;32907;41.412;2.164;2022-12-07T14:40:55;34.55;;;25.20;;
47153;SDS011;32907;41.412;2.164;2022-12-07T14:43:47;35.47;;;25.95;;
47153;SDS011;32907;41.412;2.164;2022-12-07T14:46:35;34.15;;;25.30;;
47153;SDS011;32907;41.412;2.164;2022-12-07T14:49:03;31.17;;;22.67;;
47153;SDS011;32907;41.412;2.164;2022-12-07T14:51:52;28.98;;;21.60;;
47153;SDS011;32907;41.412;2.164;2022-12-07T14:54:40;22.25;;;17.85;;
47153;SDS011;32907;41.412;2.164;2022-12-07T14:57:09;23.60;;;18.10;;
47153;SDS011;32907;41.412;2.164;2022-12-07T14:59:38;25.15;;;18.70;;
47153;SDS011;32907;41.412;2.164;2022-12-07T15:02:12;22.58;;;17.67;;
47153;SDS011;32907;41.412;2.164;2022-12-07T15:04:41;24.50;;;18.23;;
47153;SDS011;32907;41.412;2.164;2022-12-07T15:07:10;21.23;;;16.77;;
47153;SDS011;32907;41.412;2.164;2022-12-07T15:09:46;23.38;;;17.20;;
47153;SDS011;32907;41.412;2.164;2022-12-07T15:12:14;21.83;;;16.15;;
47153;SDS011;32907;41.412;2.164;2022-12-07T15:14:42;28.75;;;22.33;;
47153;SDS011;32907;41.412;2.164;2022-12-07T15:17:11;37.63;;;28.98;;
47153;SDS011;32907;41.412;2.164;2022-12-07T15:19:54;41.97;;;33.92;;
47153;SDS011;32907;41.412;2.164;2022-12-07T15:22:21;39.40;;;28.52;;
47153;SDS011;32907;41.412;2.164;2022-12-07T15:24:49;31.92;;;23.77;;
47153;SDS011;32907;41.412;2.164;2022-12-07T15:27:17;26.38;;;21.05;;
47153;SDS011;32907;41.412;2.164;2022-12-07T15:29:45;28.08;;;19.55;;
47153;SDS011;32907;41.412;2.164;2022-12-07T15:32:13;28.88;;;20.42;;
47153;SDS011;32907;41.412;2.164;2022-12-07T15:34:41;30.38;;;21.35;;
47153;SDS011;32907;41.412;2.164;2022-12-07T15:37:08;26.67;;;19.98;;
47153;SDS011;32907;41.412;2.164;2022-12-07T15:39:36;28.70;;;18.10;;
47153;SDS011;32907;41.412;2.164;2022-12-07T15:42:04;23.80;;;16.67;;
47153;SDS011;32907;41.412;2.164;2022-12-07T15:44:34;22.33;;;16.13;;
47153;SDS011;32907;41.412;2.164;2022-12-07T15:47:20;21.42;;;16.25;;
47153;SDS011;32907;41.412;2.164;2022-12-07T15:49:48;21.05;;;14.95;;
47153;SDS011;32907;41.412;2.164;2022-12-07T15:52:19;21.15;;;15.30;;
47153;SDS011;32907;41.412;2.164;2022-12-07T15:54:47;18.42;;;15.23;;
47153;SDS011;32907;41.412;2.164;2022-12-07T15:57:15;18.75;;;15.25;;
47153;SDS011;32907;41.412;2.164;2022-12-07T15:59:51;18.23;;;15.25;;
47153;SDS011;32907;41.412;2.164;2022-12-07T16:02:18;21.25;;;15.02;;
47153;SDS011;32907;41.412;2.164;2022-12-07T16:04:46;23.65;;;15.45;;
47153;SDS011;32907;41.412;2.164;2022-12-07T16:07:14;19.58;;;14.18;;
47153;SDS011;32907;41.412;2.164;2022-12-07T16:09:43;21.10;;;14.43;;
47153;SDS011;32907;41.412;2.164;2022-12-07T16:12:12;21.17;;;14.07;;
47153;SDS011;32907;41.412;2.164;2022-12-07T16:14:41;20.42;;;15.18;;
47153;SDS011;32907;41.412;2.164;2022-12-07T16:17:09;19.17;;;15.35;;
47153;SDS011;32907;41.412;2.164;2022-12-07T16:19:38;20.98;;;15.95;;
47153;SDS011;32907;41.412;2.164;2022-12-07T16:22:08;19.33;;;15.65;;
47153;SDS011;32907;41.412;2.164;2022-12-07T16:24:35;19.05;;;14.85;;
47153;SDS011;32907;41.412;2.164;2022-12-07T16:27:03;24.15;;;15.60;;
47153;SDS011;32907;41.412;2.164;2022-12-07T16:29:31;21.52;;;15.68;;
47153;SDS011;32907;41.412;2.164;2022-12-07T16:31:59;22.45;;;15.75;;
47153;SDS011;32907;41.412;2.164;2022-12-07T16:34:26;23.58;;;17.35;;
47153;SDS011;32907;41.412;2.164;2022-12-07T16:36:55;25.85;;;17.17;;
47153;SDS011;32907;41.412;2.164;2022-12-07T16:39:32;20.05;;;16.23;;
47153;SDS011;32907;41.412;2.164;2022-12-07T16:42:01;22.50;;;16.75;;
47153;SDS011;32907;41.412;2.164;2022-12-07T16:44:28;22.33;;;17.83;;
47153;SDS011;32907;41.412;2.164;2022-12-07T16:46:57;21.05;;;18.13;;
47153;SDS011;32907;41.412;2.164;2022-12-07T16:49:26;24.85;;;17.88;;
47153;SDS011;32907;41.412;2.164;2022-12-07T16:51:53;21.40;;;17.05;;
47153;SDS011;32907;41.412;2.164;2022-12-07T16:54:42;22.15;;;16.98;;
47153;SDS011;32907;41.412;2.164;2022-12-07T16:57:10;18.42;;;16.08;;
47153;SDS011;32907;41.412;2.164;2022-12-07T16:59:46;19.98;;;17.30;;
47153;SDS011;32907;41.412;2.164;2022-12-07T17:02:13;19.45;;;16.42;;
47153;SDS011;32907;41.412;2.164;2022-12-07T17:04:41;22.45;;;16.88;;
47153;SDS011;32907;41.412;2.164;2022-12-07T17:07:09;20.55;;;17.00;;
47153;SDS011;32907;41.412;2.164;2022-12-07T17:09:38;23.80;;;18.17;;
47153;SDS011;32907;41.412;2.164;2022-12-07T17:12:06;24.88;;;17.17;;
47153;SDS011;32907;41.412;2.164;2022-12-07T17:14:34;23.95;;;17.25;;
47153;SDS011;32907;41.412;2.164;2022-12-07T17:17:21;22.48;;;16.98;;
47153;SDS011;32907;41.412;2.164;2022-12-07T17:19:48;21.45;;;17.05;;
47153;SDS011;32907;41.412;2.164;2022-12-07T17:22:16;19.10;;;16.05;;
47153;SDS011;32907;41.412;2.164;2022-12-07T17:24:44;23.45;;;18.42;;
47153;SDS011;32907;41.412;2.164;2022-12-07T17:27:11;19.60;;;16.35;;
47153;SDS011;32907;41.412;2.164;2022-12-07T17:29:39;21.83;;;16.75;;
47153;SDS011;32907;41.412;2.164;2022-12-07T17:32:08;22.85;;;18.05;;
47153;SDS011;32907;41.412;2.164;2022-12-07T17:34:36;20.27;;;17.30;;
47153;SDS011;32907;41.412;2.164;2022-12-07T17:37:04;22.05;;;16.52;;
47153;SDS011;32907;41.412;2.164;2022-12-07T17:39:31;21.58;;;17.25;;